Time;durP1;ratioP1;P1;durP2;ratioP2;P2;SDS_P1;SDS_P2;PMS_P1;PMS_P2;Temp;Humidity;BMP_temperature;BMP_pressure;BME280_temperature;BME280_humidity;BME280_pressure;Samples;Min_cycle;Max_cycle;Signal;HPM_P1;HPM_P2
2023/05/16 00:00:33;;;;;;;16.17;3.83;;;9.60;99.90;;;;;;5151222;27;20068;-34
2023/05/16 00:03:00;;;;;;;12.50;3.75;;;9.60;99.90;;;;;;5144501;27;20037;-37
2023/05/16 00:05:26;;;;;;;9.13;3.42;;;9.60;99.90;;;;;;5148723;27;20509;-36
2023/05/16 00:07:52;;;;;;;10.77;3.17;;;9.50;99.90;;;;;;5155097;27;20034;-37
2023/05/16 00:10:18;;;;;;;10.43;3.08;;;9.50;99.90;;;;;;5140548;27;20559;-37
2023/05/16 00:12:44;;;;;;;16.48;3.67;;;9.50;99.90;;;;;;5154675;27;20510;-36
2023/05/16 00:15:14;;;;;;;10.93;3.13;;;9.40;99.90;;;;;;5137652;27;20045;-36
2023/05/16 00:17:40;;;;;;;14.70;3.22;;;9.40;99.90;;;;;;5144506;27;20034;-35
2023/05/16 00:20:13;;;;;;;14.38;4.00;;;9.30;99.90;;;;;;5137872;27;20142;-36
2023/05/16 00:22:39;;;;;;;11.13;3.28;;;9.30;99.90;;;;;;5161231;27;20026;-36
2023/05/16 00:25:05;;;;;;;10.25;3.25;;;9.20;99.90;;;;;;5143321;27;20500;-36
2023/05/16 00:27:33;;;;;;;12.82;3.10;;;9.20;99.90;;;;;;5165913;27;20399;-38
2023/05/16 00:30:00;;;;;;;9.80;3.28;;;9.10;99.90;;;;;;5149308;27;20034;-37
2023/05/16 00:32:26;;;;;;;11.82;3.25;;;9.10;99.90;;;;;;5152652;27;20093;-37
2023/05/16 00:34:52;;;;;;;14.27;3.08;;;9.00;99.90;;;;;;5140271;27;20114;-36
2023/05/16 00:37:18;;;;;;;16.73;3.30;;;9.00;99.90;;;;;;5149892;27;20121;-37
2023/05/16 00:39:44;;;;;;;9.40;2.78;;;9.00;99.90;;;;;;5140573;27;20456;-36
2023/05/16 00:42:09;;;;;;;13.70;3.72;;;9.00;99.90;;;;;;5138494;27;20166;-38
2023/05/16 00:44:35;;;;;;;11.93;3.55;;;8.90;99.90;;;;;;5155358;27;20492;-36
2023/05/16 00:47:02;;;;;;;11.45;3.13;;;8.90;99.90;;;;;;5144506;27;20037;-36
2023/05/16 00:49:28;;;;;;;13.10;3.58;;;8.90;99.90;;;;;;5137932;27;20034;-36
2023/05/16 00:51:56;;;;;;;12.02;3.05;;;8.80;99.90;;;;;;5140529;27;20040;-37
2023/05/16 00:54:24;;;;;;;9.95;3.20;;;8.80;99.90;;;;;;5126971;27;20491;-36
2023/05/16 00:56:51;;;;;;;11.45;3.38;;;8.80;99.90;;;;;;5146347;27;20034;-37
2023/05/16 00:59:18;;;;;;;14.95;3.38;;;8.70;99.90;;;;;;5157264;27;20062;-36
2023/05/16 01:01:47;;;;;;;17.40;3.15;;;8.70;99.90;;;;;;5125483;27;20054;-36
2023/05/16 01:04:13;;;;;;;10.63;3.20;;;8.70;99.90;;;;;;5161999;27;20036;-36
2023/05/16 01:06:39;;;;;;;12.10;2.65;;;8.60;99.90;;;;;;5146674;27;20034;-37
2023/05/16 01:09:06;;;;;;;13.50;3.33;;;8.60;99.90;;;;;;5152975;27;20034;-37
2023/05/16 01:11:42;;;;;;;6.70;2.83;;;8.60;99.90;;;;;;5141665;27;20117;-36
2023/05/16 01:14:31;;;;;;;11.82;3.75;;;8.60;99.90;;;;;;5139165;27;20058;-36
2023/05/16 01:17:31;;;;;;;10.93;3.20;;;8.50;99.90;;;;;;5140169;27;20066;-38
2023/05/16 01:20:25;;;;;;;18.08;3.67;;;8.50;99.90;;;;;;5143094;27;20042;-37
2023/05/16 01:23:03;;;;;;;13.57;3.20;;;8.40;99.90;;;;;;5134602;27;20041;-36
2023/05/16 01:25:44;;;;;;;10.02;3.20;;;8.40;99.90;;;;;;5145070;27;20471;-36
2023/05/16 01:28:14;;;;;;;11.15;3.40;;;8.30;99.90;;;;;;5151889;27;20117;-38
2023/05/16 01:30:40;;;;;;;9.30;3.03;;;8.30;99.90;;;;;;5143720;27;20095;-36
2023/05/16 01:33:07;;;;;;;12.65;2.97;;;8.20;99.90;;;;;;5152701;27;20034;-36
2023/05/16 01:36:01;;;;;;;13.57;3.42;;;8.20;99.90;;;;;;5138211;27;20034;-37
2023/05/16 01:38:43;;;;;;;11.38;2.85;;;8.20;99.90;;;;;;5106460;27;20038;-38
2023/05/16 01:41:24;;;;;;;9.32;2.85;;;8.20;99.90;;;;;;5138732;27;20027;-36
2023/05/16 01:44:02;;;;;;;13.48;3.05;;;8.10;99.90;;;;;;5143259;27;20034;-37
2023/05/16 01:46:33;;;;;;;11.57;3.05;;;8.00;99.90;;;;;;5146812;27;20494;-35
2023/05/16 01:49:18;;;;;;;10.98;2.80;;;8.00;99.90;;;;;;5142133;27;20488;-37
2023/05/16 01:51:59;;;;;;;12.15;3.50;;;8.00;99.90;;;;;;5146663;27;20036;-37
2023/05/16 01:54:29;;;;;;;10.85;2.95;;;7.90;99.90;;;;;;5148203;27;20526;-37
2023/05/16 01:56:56;;;;;;;7.78;2.88;;;7.90;99.90;;;;;;5146783;27;20034;-37
2023/05/16 01:59:23;;;;;;;11.15;2.85;;;7.90;99.90;;;;;;5145905;27;20436;-37
2023/05/16 02:01:49;;;;;;;10.25;3.58;;;7.90;99.90;;;;;;5142752;27;20098;-36
2023/05/16 02:04:14;;;;;;;8.77;2.42;;;7.80;99.90;;;;;;5142572;27;20038;-40
2023/05/16 02:06:43;;;;;;;10.80;2.85;;;7.80;99.90;;;;;;5140809;27;20047;-37
2023/05/16 02:09:09;;;;;;;13.07;3.10;;;7.80;99.90;;;;;;5142170;27;20095;-37
2023/05/16 02:11:35;;;;;;;11.00;2.80;;;7.70;99.90;;;;;;5151404;27;20030;-36
2023/05/16 02:14:00;;;;;;;7.88;2.72;;;7.70;99.90;;;;;;5144113;27;20094;-36
2023/05/16 02:16:30;;;;;;;11.35;3.25;;;7.70;99.90;;;;;;5147725;27;20037;-36
2023/05/16 02:18:56;;;;;;;10.90;3.15;;;7.60;99.90;;;;;;5167243;27;20040;-35
2023/05/16 02:21:21;;;;;;;9.75;2.78;;;7.60;99.90;;;;;;5166511;27;20491;-36
2023/05/16 02:23:47;;;;;;;9.90;2.70;;;7.60;99.90;;;;;;5165561;27;20572;-41
2023/05/16 02:26:13;;;;;;;11.00;2.50;;;7.60;99.90;;;;;;5151609;27;20060;-35
2023/05/16 02:28:39;;;;;;;13.45;2.78;;;7.50;99.90;;;;;;5164307;27;20034;-36
2023/05/16 02:31:05;;;;;;;10.15;2.50;;;7.50;99.90;;;;;;5137796;27;20575;-36
2023/05/16 02:33:31;;;;;;;10.32;2.63;;;7.40;99.90;;;;;;5167227;27;20069;-36
2023/05/16 02:35:57;;;;;;;10.45;2.80;;;7.50;99.90;;;;;;5147689;27;20111;-36
2023/05/16 02:38:22;;;;;;;10.50;2.55;;;7.40;99.90;;;;;;5142840;27;20034;-36
2023/05/16 02:40:49;;;;;;;10.52;2.78;;;7.40;99.90;;;;;;5144295;27;20034;-37
2023/05/16 02:43:15;;;;;;;11.15;2.75;;;7.40;99.90;;;;;;5144661;27;20022;-36
2023/05/16 02:45:41;;;;;;;10.70;2.88;;;7.40;99.90;;;;;;5146025;27;20039;-36
2023/05/16 02:48:07;;;;;;;11.80;2.60;;;7.30;99.90;;;;;;5142326;27;20035;-37
2023/05/16 02:50:33;;;;;;;9.70;3.22;;;7.30;99.90;;;;;;5149667;27;20030;-36
2023/05/16 02:53:01;;;;;;;10.88;2.47;;;7.30;99.90;;;;;;5141631;27;20094;-36
2023/05/16 02:55:30;;;;;;;12.93;2.80;;;7.30;99.90;;;;;;5144158;27;20500;-37
2023/05/16 02:57:55;;;;;;;13.48;3.08;;;7.40;99.90;;;;;;5164772;27;20026;-37
2023/05/16 03:00:22;;;;;;;9.70;2.90;;;7.40;99.90;;;;;;5149919;27;20026;-37
2023/05/16 03:02:48;;;;;;;10.82;2.88;;;7.40;99.90;;;;;;5148111;27;20038;-37
2023/05/16 03:05:14;;;;;;;9.18;2.40;;;7.50;99.90;;;;;;5145672;27;20027;-37
2023/05/16 03:07:40;;;;;;;14.27;2.55;;;7.60;99.90;;;;;;5142796;27;20043;-37
2023/05/16 03:10:06;;;;;;;9.77;2.42;;;7.60;99.90;;;;;;5151074;27;20086;-36
2023/05/16 03:12:32;;;;;;;9.25;2.42;;;7.70;99.90;;;;;;5147519;27;20049;-36
2023/05/16 03:14:58;;;;;;;9.68;2.35;;;7.70;99.90;;;;;;5142156;27;20035;-38
2023/05/16 03:17:24;;;;;;;12.75;3.00;;;7.80;99.90;;;;;;5141182;27;20110;-36
2023/05/16 03:19:50;;;;;;;14.15;2.80;;;7.80;99.90;;;;;;5147794;27;20041;-37
2023/05/16 03:22:15;;;;;;;13.75;3.10;;;7.80;99.90;;;;;;5155469;27;20022;-37
2023/05/16 03:24:41;;;;;;;12.77;2.83;;;7.80;99.90;;;;;;5166705;27;20150;-37
2023/05/16 03:27:07;;;;;;;12.15;2.38;;;7.80;99.90;;;;;;5144138;27;20047;-36
2023/05/16 03:29:33;;;;;;;8.98;2.63;;;7.80;99.90;;;;;;5152435;27;20373;-37
2023/05/16 03:31:59;;;;;;;5.53;2.15;;;7.70;99.90;;;;;;5137543;27;20572;-37
2023/05/16 03:34:25;;;;;;;9.95;2.67;;;7.70;99.90;;;;;;5150852;27;20034;-36
2023/05/16 03:36:51;;;;;;;12.00;3.25;;;7.60;99.90;;;;;;5171790;27;20570;-36
2023/05/16 03:39:17;;;;;;;11.30;2.20;;;7.60;99.90;;;;;;5139250;27;20388;-37
2023/05/16 03:41:43;;;;;;;14.85;3.03;;;7.60;99.90;;;;;;5142458;27;20118;-37
2023/05/16 03:44:09;;;;;;;9.68;2.33;;;7.50;99.90;;;;;;5144984;27;20458;-38
2023/05/16 03:46:35;;;;;;;9.45;3.03;;;7.50;99.90;;;;;;5168440;27;20113;-37
2023/05/16 03:49:01;;;;;;;11.18;2.90;;;7.50;99.90;;;;;;5144455;27;20480;-36
2023/05/16 03:51:27;;;;;;;11.48;2.90;;;7.50;99.90;;;;;;5145146;27;20038;-36
2023/05/16 03:53:53;;;;;;;10.00;2.90;;;7.40;99.90;;;;;;5149766;27;20062;-36
2023/05/16 03:56:20;;;;;;;9.00;2.35;;;7.40;99.90;;;;;;5144392;27;20031;-35
2023/05/16 03:58:47;;;;;;;10.55;2.75;;;7.40;99.90;;;;;;5145385;27;20041;-36
2023/05/16 04:01:13;;;;;;;7.03;2.20;;;7.40;99.90;;;;;;5135671;27;20373;-36
2023/05/16 04:03:39;;;;;;;8.27;3.05;;;7.40;99.90;;;;;;5172287;27;20038;-36
2023/05/16 04:06:06;;;;;;;10.18;2.47;;;7.30;99.90;;;;;;5149284;27;20034;-37
2023/05/16 04:08:32;;;;;;;10.82;3.28;;;7.30;99.90;;;;;;5147603;27;20042;-39
2023/05/16 04:10:57;;;;;;;10.00;2.85;;;7.30;99.90;;;;;;5148234;27;20034;-37
2023/05/16 04:13:24;;;;;;;13.07;2.53;;;7.30;99.90;;;;;;5165559;27;20115;-37
2023/05/16 04:15:50;;;;;;;12.93;3.10;;;7.20;99.90;;;;;;5136922;27;20058;-37
2023/05/16 04:18:16;;;;;;;11.70;3.03;;;7.20;99.90;;;;;;5153551;27;20032;-37
2023/05/16 04:20:43;;;;;;;8.00;2.60;;;7.20;99.90;;;;;;5145361;27;20034;-36
2023/05/16 04:23:12;;;;;;;12.82;2.60;;;7.20;99.90;;;;;;5135731;27;20469;-38
2023/05/16 04:25:38;;;;;;;13.32;2.90;;;7.20;99.90;;;;;;5144240;27;20034;-36
2023/05/16 04:28:04;;;;;;;7.10;2.70;;;7.20;99.90;;;;;;5146962;27;20037;-36
2023/05/16 04:30:30;;;;;;;16.77;2.83;;;7.20;99.90;;;;;;5143443;27;20030;-38
2023/05/16 04:32:58;;;;;;;10.60;2.70;;;7.20;99.90;;;;;;5161401;27;20046;-36
2023/05/16 04:35:25;;;;;;;9.23;3.30;;;7.20;99.90;;;;;;5167042;27;20049;-37
2023/05/16 04:37:51;;;;;;;13.68;3.22;;;7.30;99.90;;;;;;5151165;27;20161;-36
2023/05/16 04:40:17;;;;;;;11.75;2.50;;;7.30;99.90;;;;;;5166208;27;20424;-37
2023/05/16 04:42:43;;;;;;;10.82;2.83;;;7.30;99.90;;;;;;5135144;27;20156;-36
2023/05/16 04:45:10;;;;;;;7.55;3.15;;;7.30;99.90;;;;;;5138779;27;20030;-37
2023/05/16 04:47:37;;;;;;;11.95;3.13;;;7.30;99.90;;;;;;5150092;27;20030;-36
2023/05/16 04:50:04;;;;;;;10.13;2.83;;;7.40;99.90;;;;;;5145765;27;20399;-35
2023/05/16 04:52:30;;;;;;;10.30;2.70;;;7.40;99.90;;;;;;5151464;27;20030;-35
2023/05/16 04:54:58;;;;;;;8.30;2.42;;;7.40;99.90;;;;;;5147804;27;20518;-36
2023/05/16 04:57:23;;;;;;;10.85;2.80;;;7.40;99.90;;;;;;5154314;27;20030;-36
2023/05/16 04:59:49;;;;;;;8.35;2.17;;;7.50;99.90;;;;;;5146578;27;20159;-36
2023/05/16 05:02:15;;;;;;;6.80;2.47;;;7.50;99.90;;;;;;5149020;27;20026;-37
2023/05/16 05:04:41;;;;;;;9.70;2.75;;;7.60;99.90;;;;;;5150680;27;20038;-37
2023/05/16 05:07:07;;;;;;;10.15;2.63;;;7.60;99.90;;;;;;5140953;27;20034;-36
2023/05/16 05:09:34;;;;;;;6.50;2.55;;;7.60;99.90;;;;;;5154982;27;20038;-37
2023/05/16 05:12:00;;;;;;;8.40;2.75;;;7.70;99.90;;;;;;5164110;27;20484;-36
2023/05/16 05:14:25;;;;;;;10.05;3.05;;;7.70;99.90;;;;;;5144869;27;20041;-36
2023/05/16 05:16:51;;;;;;;12.13;2.95;;;7.80;99.90;;;;;;5145288;27;20496;-36
2023/05/16 05:19:20;;;;;;;5.47;2.60;;;7.80;99.90;;;;;;5140233;27;20095;-36
2023/05/16 05:21:46;;;;;;;10.00;2.90;;;7.90;99.90;;;;;;5141445;27;20069;-36
2023/05/16 05:24:12;;;;;;;10.98;2.90;;;8.00;99.90;;;;;;5145915;27;20034;-37
2023/05/16 05:26:38;;;;;;;8.82;2.30;;;8.00;99.90;;;;;;5142836;27;20102;-36
2023/05/16 05:29:04;;;;;;;8.93;2.67;;;8.10;99.90;;;;;;5141084;27;20062;-37
2023/05/16 05:31:33;;;;;;;6.97;2.35;;;8.20;99.90;;;;;;5143826;27;20046;-36
2023/05/16 05:33:59;;;;;;;8.52;2.40;;;8.20;99.90;;;;;;5144974;27;20436;-36
2023/05/16 05:36:25;;;;;;;7.78;2.53;;;8.30;99.90;;;;;;5146862;27;20031;-36
2023/05/16 05:38:51;;;;;;;8.73;2.78;;;8.30;99.90;;;;;;5145519;27;20042;-36
2023/05/16 05:41:17;;;;;;;10.50;2.30;;;8.40;99.90;;;;;;5144254;27;20480;-37
2023/05/16 05:43:43;;;;;;;13.52;3.05;;;8.50;99.90;;;;;;5147995;27;20037;-37
2023/05/16 05:46:09;;;;;;;7.15;2.33;;;8.60;99.90;;;;;;5153026;27;20030;-34
2023/05/16 05:48:35;;;;;;;7.60;2.38;;;8.70;99.90;;;;;;5155204;27;20192;-36
2023/05/16 05:51:01;;;;;;;8.55;3.00;;;8.70;99.90;;;;;;5150875;27;20444;-36
2023/05/16 05:53:27;;;;;;;10.30;2.65;;;8.80;99.90;;;;;;5148532;27;20461;-35
2023/05/16 05:55:53;;;;;;;10.32;2.28;;;8.90;99.90;;;;;;5147075;27;20107;-35
2023/05/16 05:58:19;;;;;;;8.70;2.10;;;8.90;99.90;;;;;;5146245;27;20468;-34
2023/05/16 06:00:45;;;;;;;8.52;3.10;;;9.00;99.90;;;;;;5168227;27;20560;-35
2023/05/16 06:03:11;;;;;;;11.52;2.80;;;9.10;99.90;;;;;;5145838;27;20027;-37
2023/05/16 06:05:37;;;;;;;8.68;2.13;;;9.20;99.90;;;;;;5165251;27;20066;-34
2023/05/16 06:08:03;;;;;;;7.50;2.20;;;9.40;99.90;;;;;;5152154;27;20475;-35
2023/05/16 06:10:30;;;;;;;9.63;2.33;;;9.40;99.90;;;;;;5163171;27;20395;-34
2023/05/16 06:12:55;;;;;;;5.93;2.08;;;9.60;99.90;;;;;;5152380;27;20031;-34
2023/05/16 06:15:21;;;;;;;8.05;2.70;;;9.70;99.90;;;;;;5148584;27;20388;-34
2023/05/16 06:17:47;;;;;;;11.73;2.22;;;9.70;99.90;;;;;;5155910;27;20065;-34
2023/05/16 06:20:13;;;;;;;16.23;3.15;;;9.80;99.90;;;;;;5151023;27;20030;-36
2023/05/16 06:22:39;;;;;;;9.82;1.88;;;9.90;99.90;;;;;;5166133;27;20085;-34
2023/05/16 06:25:05;;;;;;;7.82;2.08;;;9.90;99.90;;;;;;5146748;27;20026;-34
2023/05/16 06:27:32;;;;;;;6.25;1.70;;;10.00;99.90;;;;;;5166365;27;20163;-35
2023/05/16 06:29:58;;;;;;;7.20;2.25;;;10.10;99.90;;;;;;5144185;27;20046;-34
2023/05/16 06:32:24;;;;;;;5.45;1.80;;;10.20;99.90;;;;;;5143617;27;20041;-35
2023/05/16 06:34:49;;;;;;;7.78;1.90;;;10.20;99.90;;;;;;5142178;27;20042;-37
2023/05/16 06:37:16;;;;;;;10.35;2.15;;;10.30;99.90;;;;;;5143235;27;20019;-35
2023/05/16 06:39:41;;;;;;;9.30;2.55;;;10.40;99.90;;;;;;5146964;27;20482;-35
2023/05/16 06:42:07;;;;;;;5.30;2.33;;;10.60;99.90;;;;;;5151750;27;20062;-35
2023/05/16 06:44:33;;;;;;;7.18;2.05;;;10.60;99.90;;;;;;5145314;27;20030;-34
2023/05/16 06:46:59;;;;;;;6.05;2.00;;;10.70;99.90;;;;;;5163099;27;20034;-35
2023/05/16 06:49:25;;;;;;;8.48;1.95;;;10.90;99.90;;;;;;5143224;27;20031;-36
2023/05/16 06:51:51;;;;;;;6.90;2.17;;;10.90;99.90;;;;;;5140823;27;20073;-36
2023/05/16 06:54:17;;;;;;;8.65;2.10;;;11.00;99.90;;;;;;5143833;27;20054;-35
2023/05/16 06:56:43;;;;;;;6.30;1.98;;;11.10;99.90;;;;;;5143930;27;20500;-35
2023/05/16 06:59:09;;;;;;;10.88;1.98;;;11.20;99.90;;;;;;5143133;27;20030;-34
2023/05/16 07:01:34;;;;;;;8.65;2.63;;;11.20;99.90;;;;;;5148004;27;20034;-35
2023/05/16 07:04:00;;;;;;;6.78;1.98;;;11.30;99.90;;;;;;5143510;27;20395;-35
2023/05/16 07:06:26;;;;;;;9.38;1.98;;;11.50;99.90;;;;;;5167228;27;20026;-34
2023/05/16 07:08:52;;;;;;;5.57;1.75;;;11.60;99.90;;;;;;5143045;27;20035;-34
2023/05/16 07:11:18;;;;;;;18.40;2.78;;;11.70;99.90;;;;;;5154303;27;20094;-35
2023/05/16 07:13:43;;;;;;;14.40;2.95;;;11.80;99.90;;;;;;5140249;27;20039;-37
2023/05/16 07:16:09;;;;;;;4.93;1.17;;;12.00;99.90;;;;;;5160089;27;20491;-34
2023/05/16 07:18:35;;;;;;;6.07;1.10;;;12.00;99.90;;;;;;5154990;27;20392;-35
2023/05/16 07:21:01;;;;;;;3.25;0.60;;;11.90;99.90;;;;;;5166576;27;20030;-35
2023/05/16 07:23:27;;;;;;;3.63;0.90;;;11.80;99.90;;;;;;5123571;27;20030;-34
2023/05/16 07:25:53;;;;;;;8.57;1.48;;;11.80;99.90;;;;;;5145767;27;20049;-35
2023/05/16 07:28:20;;;;;;;6.93;1.10;;;11.80;99.90;;;;;;5150738;27;20137;-36
2023/05/16 07:30:46;;;;;;;4.47;1.00;;;12.00;99.90;;;;;;5155402;27;20495;-35
2023/05/16 07:33:12;;;;;;;6.63;1.40;;;12.20;99.90;;;;;;5148506;27;20046;-36
2023/05/16 07:35:38;;;;;;;5.07;0.90;;;12.20;99.90;;;;;;5146002;27;20034;-36
2023/05/16 07:38:04;;;;;;;7.57;1.10;;;12.10;99.90;;;;;;5141721;27;20121;-35
2023/05/16 07:40:30;;;;;;;3.80;0.80;;;12.20;99.90;;;;;;5142354;27;20502;-34
2023/05/16 07:42:59;;;;;;;6.60;1.25;;;12.40;99.90;;;;;;5144477;27;20027;-34
2023/05/16 07:45:25;;;;;;;3.33;1.17;;;12.60;99.90;;;;;;5148437;27;20038;-35
2023/05/16 07:47:50;;;;;;;5.20;1.40;;;12.80;99.90;;;;;;5151939;27;20121;-38
2023/05/16 07:50:17;;;;;;;6.00;1.25;;;12.90;99.90;;;;;;5148784;27;20492;-37
2023/05/16 07:52:43;;;;;;;3.80;1.00;;;13.00;99.90;;;;;;5146691;27;20678;-35
2023/05/16 07:55:09;;;;;;;3.75;1.10;;;13.10;99.90;;;;;;5164446;27;20460;-40
2023/05/16 07:57:35;;;;;;;7.13;1.42;;;13.20;99.90;;;;;;5139125;27;20031;-36
2023/05/16 08:00:03;;;;;;;10.15;2.97;;;13.40;99.90;;;;;;5142052;27;20026;-36
2023/05/16 08:02:29;;;;;;;5.95;1.42;;;13.60;99.90;;;;;;5128788;27;20038;-34
2023/05/16 08:04:58;;;;;;;5.30;1.10;;;13.80;99.90;;;;;;5145647;27;20063;-36
2023/05/16 08:07:24;;;;;;;4.05;1.40;;;14.00;99.90;;;;;;5143376;27;20046;-35
2023/05/16 08:09:50;;;;;;;5.60;1.20;;;14.20;99.90;;;;;;5140612;27;20034;-35
2023/05/16 08:12:16;;;;;;;6.28;1.40;;;14.50;99.90;;;;;;5150888;27;20057;-39
2023/05/16 08:14:47;;;;;;;7.68;1.63;;;14.80;99.90;;;;;;5146635;27;20050;-37
2023/05/16 08:17:15;;;;;;;6.28;1.50;;;15.00;99.90;;;;;;5134955;27;20491;-38
2023/05/16 08:19:41;;;;;;;3.40;1.30;;;15.20;99.90;;;;;;5149653;27;20034;-34
2023/05/16 08:22:08;;;;;;;4.57;1.27;;;15.00;99.90;;;;;;5142638;27;20174;-35
2023/05/16 08:24:34;;;;;;;4.15;1.20;;;14.90;99.90;;;;;;5145513;27;20035;-36
2023/05/16 08:27:00;;;;;;;5.68;1.10;;;14.60;99.90;;;;;;5146411;27;20042;-36
2023/05/16 08:29:26;;;;;;;4.78;1.30;;;14.40;99.90;;;;;;5143743;27;20038;-35
2023/05/16 08:31:52;;;;;;;4.07;1.10;;;14.30;99.90;;;;;;5146812;27;20089;-36
2023/05/16 08:34:18;;;;;;;4.30;1.20;;;14.20;99.90;;;;;;5140844;27;20034;-38
2023/05/16 08:36:44;;;;;;;5.82;1.40;;;14.40;99.90;;;;;;5167291;27;20038;-36
2023/05/16 08:39:10;;;;;;;6.20;1.40;;;14.60;99.90;;;;;;5151578;27;20045;-38
2023/05/16 08:41:36;;;;;;;6.20;2.05;;;14.70;99.90;;;;;;5154626;27;20062;-35
2023/05/16 08:44:03;;;;;;;4.53;1.27;;;14.40;99.90;;;;;;5144372;27;20035;-38
2023/05/16 08:46:30;;;;;;;7.15;1.50;;;14.20;99.90;;;;;;5175738;27;20026;-36
2023/05/16 08:49:06;;;;;;;7.70;1.13;;;14.20;99.90;;;;;;5169661;27;20068;-34
2023/05/16 08:51:36;;;;;;;5.50;1.35;;;14.30;99.90;;;;;;5148764;27;20384;-39
2023/05/16 08:54:05;;;;;;;3.63;1.15;;;14.60;99.90;;;;;;5148506;27;20458;-34
2023/05/16 08:56:33;;;;;;;5.28;1.45;;;14.60;99.90;;;;;;5168292;27;20034;-35
2023/05/16 08:58:59;;;;;;;4.38;1.10;;;14.70;99.90;;;;;;5171528;27;20491;-35
2023/05/16 09:01:25;;;;;;;6.05;1.63;;;15.00;99.90;;;;;;5145895;27;20090;-35
2023/05/16 09:03:52;;;;;;;4.15;1.80;;;15.30;99.90;;;;;;5161973;27;20034;-35
2023/05/16 09:06:18;;;;;;;5.78;1.30;;;15.60;99.90;;;;;;5138909;27;20042;-36
2023/05/16 09:08:44;;;;;;;4.10;1.50;;;16.00;99.90;;;;;;5141606;27;20403;-36
2023/05/16 09:11:10;;;;;;;5.20;1.50;;;16.50;99.90;;;;;;5143396;27;20027;-35
2023/05/16 09:13:38;;;;;;;7.53;2.42;;;16.50;99.90;;;;;;5164275;27;20035;-35
2023/05/16 09:16:30;;;;;;;2.90;1.20;;;16.40;99.90;;;;;;5149377;27;20043;-35
2023/05/16 09:18:59;;;;;;;4.28;1.10;;;16.30;98.90;;;;;;5143297;27;20046;-36
2023/05/16 09:21:33;;;;;;;4.15;1.23;;;16.10;99.90;;;;;;5150284;27;20117;-35
2023/05/16 09:24:07;;;;;;;4.53;1.63;;;15.50;99.90;;;;;;5163879;27;20027;-34
2023/05/16 09:26:34;;;;;;;5.47;1.10;;;15.60;99.90;;;;;;5144565;27;20445;-35
2023/05/16 09:29:01;;;;;;;5.15;1.52;;;15.80;99.90;;;;;;5144886;27;20026;-35
2023/05/16 09:31:36;;;;;;;2.72;1.20;;;16.20;99.90;;;;;;5172095;27;20109;-35
2023/05/16 09:34:12;;;;;;;3.97;1.10;;;16.10;99.90;;;;;;5152340;27;20061;-35
2023/05/16 09:36:38;;;;;;;6.22;1.15;;;15.90;99.90;;;;;;5169281;27;20030;-37
2023/05/16 09:39:06;;;;;;;2.65;1.42;;;15.80;99.90;;;;;;5148046;27;20038;-37
2023/05/16 09:41:35;;;;;;;3.40;0.90;;;15.80;99.90;;;;;;5139027;27;20043;-36
2023/05/16 09:44:05;;;;;;;3.75;1.08;;;15.90;97.30;;;;;;5144462;27;20480;-35
2023/05/16 09:46:33;;;;;;;3.38;1.23;;;16.00;99.90;;;;;;5154240;27;20496;-35
2023/05/16 09:48:59;;;;;;;4.38;1.10;;;16.30;99.90;;;;;;5142546;27;20066;-35
2023/05/16 09:51:26;;;;;;;3.45;1.10;;;16.90;99.90;;;;;;5165515;27;20073;-35
2023/05/16 09:53:51;;;;;;;3.08;1.08;;;17.30;99.90;;;;;;5152172;27;20030;-36
2023/05/16 09:56:17;;;;;;;3.58;0.95;;;17.70;99.90;;;;;;5144882;27;20067;-35
2023/05/16 09:58:45;;;;;;;2.63;1.13;;;17.80;97.80;;;;;;5154060;27;20121;-36
2023/05/16 10:01:11;;;;;;;2.88;1.17;;;17.60;90.20;;;;;;5135819;27;20037;-36
2023/05/16 10:03:40;;;;;;;6.72;2.03;;;17.80;88.80;;;;;;5148252;27;20030;-36
2023/05/16 10:06:07;;;;;;;4.13;1.10;;;17.70;82.90;;;;;;5141572;27;20066;-35
2023/05/16 10:08:35;;;;;;;4.70;1.10;;;18.20;90.60;;;;;;5141674;27;20046;-39
2023/05/16 10:11:03;;;;;;;4.82;1.50;;;18.40;62.90;;;;;;5146186;27;20030;-36
2023/05/16 10:13:31;;;;;;;5.47;1.42;;;18.50;76.00;;;;;;5151571;27;20476;-40
2023/05/16 10:15:59;;;;;;;3.30;1.17;;;18.80;68.30;;;;;;5149348;27;20035;-37
2023/05/16 10:18:35;;;;;;;3.85;1.63;;;19.10;76.90;;;;;;5148455;27;20037;-39
2023/05/16 10:21:07;;;;;;;3.72;1.38;;;19.40;61.50;;;;;;5147017;27;20365;-36
2023/05/16 10:23:33;;;;;;;3.00;1.10;;;19.10;62.00;;;;;;5160239;27;20115;-38
2023/05/16 10:26:03;;;;;;;5.85;1.60;;;19.10;64.60;;;;;;5145482;27;20429;-38
2023/05/16 10:28:29;;;;;;;3.75;1.25;;;19.30;62.20;;;;;;5138831;27;20034;-35
2023/05/16 10:30:55;;;;;;;4.50;1.40;;;19.30;62.50;;;;;;5146173;27;20050;-37
2023/05/16 10:33:21;;;;;;;4.80;1.38;;;19.20;61.30;;;;;;5166157;27;20034;-38
2023/05/16 10:35:47;;;;;;;4.05;1.25;;;19.10;59.00;;;;;;5156885;27;20395;-39
2023/05/16 10:38:16;;;;;;;3.97;1.15;;;18.80;58.20;;;;;;5153141;27;20487;-34
2023/05/16 10:40:43;;;;;;;4.22;1.40;;;19.00;57.80;;;;;;5147878;27;20398;-36
2023/05/16 10:43:09;;;;;;;3.30;1.08;;;19.30;59.20;;;;;;5145067;27;20053;-37
2023/05/16 10:45:40;;;;;;;5.55;1.25;;;19.00;57.20;;;;;;5166284;27;20042;-38
2023/05/16 10:48:09;;;;;;;4.85;1.48;;;19.00;56.90;;;;;;5146394;27;20083;-35
2023/05/16 10:50:40;;;;;;;4.90;1.35;;;19.20;60.40;;;;;;5148286;27;20038;-36
2023/05/16 10:53:22;;;;;;;1.80;1.10;;;19.30;60.00;;;;;;5151835;27;20377;-37
2023/05/16 10:56:00;;;;;;;5.82;1.55;;;19.00;56.40;;;;;;5164570;27;20484;-38
2023/05/16 10:58:33;;;;;;;6.85;1.38;;;18.60;57.60;;;;;;5147431;27;20101;-36
2023/05/16 11:01:20;;;;;;;3.25;1.30;;;18.40;59.30;;;;;;5138069;27;20437;-37
2023/05/16 11:04:00;;;;;;;5.22;1.65;;;18.00;60.40;;;;;;5151703;27;20045;-35
2023/05/16 11:06:33;;;;;;;4.15;1.10;;;18.10;61.40;;;;;;5159536;27;20115;-36
2023/05/16 11:09:09;;;;;;;2.38;1.17;;;17.90;61.10;;;;;;5145452;27;20107;-36
2023/05/16 11:11:50;;;;;;;3.58;1.10;;;17.80;60.60;;;;;;5131066;27;20049;-36
2023/05/16 11:14:21;;;;;;;2.53;1.10;;;18.20;58.80;;;;;;5170052;27;20502;-37
2023/05/16 11:17:14;;;;;;;5.70;1.10;;;18.80;58.20;;;;;;5152312;27;20066;-36
2023/05/16 11:19:58;;;;;;;3.33;0.90;;;19.10;55.70;;;;;;5166326;27;20042;-36
2023/05/16 11:22:32;;;;;;;4.07;1.27;;;18.60;53.50;;;;;;5154628;27;20038;-36
2023/05/16 11:25:01;;;;;;;3.83;1.30;;;18.20;54.50;;;;;;5169570;27;20041;-36
2023/05/16 11:27:28;;;;;;;3.33;1.13;;;18.00;55.60;;;;;;5155689;27;20172;-37
2023/05/16 11:29:59;;;;;;;5.55;0.95;;;17.90;55.40;;;;;;5144803;27;20031;-36
2023/05/16 11:32:25;;;;;;;7.57;1.15;;;17.90;54.10;;;;;;5156036;27;20041;-35
2023/05/16 11:34:52;;;;;;;2.33;1.05;;;17.90;54.60;;;;;;5141654;27;20043;-36
2023/05/16 11:37:19;;;;;;;2.65;0.73;;;18.50;55.40;;;;;;5149108;27;20045;-36
2023/05/16 11:39:45;;;;;;;4.85;0.93;;;19.10;56.90;;;;;;5151065;27;20042;-35
2023/05/16 11:42:12;;;;;;;3.22;0.90;;;19.70;56.00;;;;;;5141256;27;20039;-37
2023/05/16 11:44:39;;;;;;;2.42;1.10;;;20.10;55.40;;;;;;5146822;27;20026;-37
2023/05/16 11:47:06;;;;;;;3.58;1.10;;;20.40;55.40;;;;;;5144339;27;20031;-37
2023/05/16 11:49:34;;;;;;;4.47;1.30;;;20.60;55.30;;;;;;5167308;27;20049;-36
2023/05/16 11:52:01;;;;;;;4.57;1.20;;;20.90;54.60;;;;;;5134803;27;20046;-36
2023/05/16 11:54:27;;;;;;;3.45;1.30;;;21.30;54.80;;;;;;5155326;27;20121;-37
2023/05/16 11:56:53;;;;;;;3.90;1.27;;;21.80;53.90;;;;;;5154131;27;20066;-37
2023/05/16 11:59:19;;;;;;;5.32;1.77;;;20.90;52.20;;;;;;5159168;27;20082;-37
2023/05/16 12:01:49;;;;;;;5.60;1.80;;;20.10;52.10;;;;;;5150440;27;20113;-40
2023/05/16 12:04:16;;;;;;;3.83;1.40;;;19.70;52.50;;;;;;5153047;27;20503;-36
2023/05/16 12:06:43;;;;;;;3.92;1.20;;;19.20;52.90;;;;;;5172381;27;20051;-37
2023/05/16 12:09:14;;;;;;;5.22;1.63;;;18.80;52.50;;;;;;5122405;27;20384;-35
2023/05/16 12:11:43;;;;;;;4.07;1.30;;;18.40;52.30;;;;;;5162946;27;20031;-35
2023/05/16 12:14:11;;;;;;;3.47;1.60;;;18.10;52.70;;;;;;5128746;27;20046;-34
2023/05/16 12:16:38;;;;;;;5.13;1.52;;;17.60;53.30;;;;;;5140980;27;20030;-35
2023/05/16 12:19:05;;;;;;;4.95;1.70;;;17.30;53.90;;;;;;5137561;27;20030;-36
2023/05/16 12:21:32;;;;;;;3.75;1.45;;;17.10;54.80;;;;;;5137797;27;20083;-35
2023/05/16 12:23:58;;;;;;;4.72;1.92;;;16.80;56.10;;;;;;5144414;27;20158;-34
2023/05/16 12:26:26;;;;;;;10.02;2.03;;;16.60;58.80;;;;;;5142080;27;20043;-35
2023/05/16 12:28:59;;;;;;;3.90;1.88;;;16.20;69.70;;;;;;5149747;27;20038;-34
2023/05/16 12:31:26;;;;;;;4.47;1.73;;;16.10;82.00;;;;;;5142338;27;20034;-34
2023/05/16 12:33:54;;;;;;;4.57;1.60;;;16.00;96.30;;;;;;5151735;27;20399;-34
2023/05/16 12:36:20;;;;;;;5.05;1.92;;;16.50;99.90;;;;;;5157544;27;20042;-34
2023/05/16 12:38:47;;;;;;;4.70;1.65;;;17.10;98.70;;;;;;5140044;27;20383;-35
2023/05/16 12:41:22;;;;;;;4.00;1.67;;;17.70;96.10;;;;;;5155051;27;20490;-35
2023/05/16 12:43:49;;;;;;;3.33;1.40;;;18.60;87.60;;;;;;5152865;27;20488;-35
2023/05/16 12:46:15;;;;;;;4.53;1.65;;;19.40;76.40;;;;;;5149184;27;20049;-35
2023/05/16 12:48:43;;;;;;;4.15;2.00;;;20.00;70.50;;;;;;5153867;27;20045;-35
2023/05/16 12:51:14;;;;;;;5.07;2.08;;;19.70;63.70;;;;;;5139715;27;20089;-35